sensor_id;sensor_type;location;lat;lon;timestamp;P1;durP1;ratioP1;P2;durP2;ratioP2
56631;SDS011;42503;39.928;-75.152;2022-07-15T00:01:19;10.52;;;3.90;;
56631;SDS011;42503;39.928;-75.152;2022-07-15T00:03:20;13.43;;;3.70;;
56631;SDS011;42503;39.928;-75.152;2022-07-15T00:05:22;12.85;;;4.47;;
56631;SDS011;42503;39.928;-75.152;2022-07-15T00:07:23;8.02;;;3.63;;
56631;SDS011;42503;39.928;-75.152;2022-07-15T00:09:27;9.23;;;3.85;;
56631;SDS011;42503;39.928;-75.152;2022-07-15T00:11:47;7.97;;;3.47;;
56631;SDS011;42503;39.928;-75.152;2022-07-15T00:13:50;8.32;;;4.13;;
56631;SDS011;42503;39.928;-75.152;2022-07-15T00:15:52;10.95;;;3.80;;
56631;SDS011;42503;39.928;-75.152;2022-07-15T00:17:56;11.70;;;3.90;;
56631;SDS011;42503;39.928;-75.152;2022-07-15T00:20:04;11.00;;;4.05;;
56631;SDS011;42503;39.928;-75.152;2022-07-15T00:22:06;10.13;;;3.40;;
56631;SDS011;42503;39.928;-75.152;2022-07-15T00:24:07;8.73;;;3.67;;
56631;SDS011;42503;39.928;-75.152;2022-07-15T00:26:09;10.95;;;4.07;;
56631;SDS011;42503;39.928;-75.152;2022-07-15T00:28:12;8.43;;;3.50;;
56631;SDS011;42503;39.928;-75.152;2022-07-15T00:30:14;10.05;;;3.75;;
56631;SDS011;42503;39.928;-75.152;2022-07-15T00:32:15;13.10;;;4.03;;
56631;SDS011;42503;39.928;-75.152;2022-07-15T00:34:19;9.57;;;3.38;;
56631;SDS011;42503;39.928;-75.152;2022-07-15T00:36:24;6.13;;;3.47;;
56631;SDS011;42503;39.928;-75.152;2022-07-15T00:38:25;8.85;;;3.53;;
56631;SDS011;42503;39.928;-75.152;2022-07-15T00:40:27;10.90;;;4.45;;
56631;SDS011;42503;39.928;-75.152;2022-07-15T00:42:28;8.02;;;3.80;;
56631;SDS011;42503;39.928;-75.152;2022-07-15T00:44:44;7.53;;;3.10;;
56631;SDS011;42503;39.928;-75.152;2022-07-15T00:46:45;6.53;;;3.65;;
56631;SDS011;42503;39.928;-75.152;2022-07-15T00:48:48;9.05;;;3.65;;
56631;SDS011;42503;39.928;-75.152;2022-07-15T00:50:50;6.70;;;3.40;;
56631;SDS011;42503;39.928;-75.152;2022-07-15T00:53:03;8.02;;;3.75;;
56631;SDS011;42503;39.928;-75.152;2022-07-15T00:57:25;9.68;;;4.13;;
56631;SDS011;42503;39.928;-75.152;2022-07-15T00:59:29;9.13;;;3.97;;
56631;SDS011;42503;39.928;-75.152;2022-07-15T01:01:33;9.52;;;4.15;;
56631;SDS011;42503;39.928;-75.152;2022-07-15T01:03:36;6.38;;;3.63;;
56631;SDS011;42503;39.928;-75.152;2022-07-15T01:05:38;6.95;;;3.47;;
56631;SDS011;42503;39.928;-75.152;2022-07-15T01:07:42;7.97;;;3.85;;
56631;SDS011;42503;39.928;-75.152;2022-07-15T01:09:44;9.40;;;4.15;;
56631;SDS011;42503;39.928;-75.152;2022-07-15T01:11:45;6.93;;;3.70;;
56631;SDS011;42503;39.928;-75.152;2022-07-15T01:13:47;5.28;;;3.00;;
56631;SDS011;42503;39.928;-75.152;2022-07-15T01:15:49;5.93;;;3.13;;
56631;SDS011;42503;39.928;-75.152;2022-07-15T01:18:00;9.70;;;4.40;;
56631;SDS011;42503;39.928;-75.152;2022-07-15T01:20:04;6.22;;;3.85;;
56631;SDS011;42503;39.928;-75.152;2022-07-15T01:22:07;6.57;;;3.88;;
56631;SDS011;42503;39.928;-75.152;2022-07-15T01:24:11;9.18;;;3.67;;
56631;SDS011;42503;39.928;-75.152;2022-07-15T01:28:14;6.97;;;3.63;;
56631;SDS011;42503;39.928;-75.152;2022-07-15T01:30:16;9.18;;;3.60;;
56631;SDS011;42503;39.928;-75.152;2022-07-15T01:34:24;6.55;;;3.22;;
56631;SDS011;42503;39.928;-75.152;2022-07-15T01:36:25;7.30;;;3.88;;
56631;SDS011;42503;39.928;-75.152;2022-07-15T01:38:27;5.88;;;3.50;;
56631;SDS011;42503;39.928;-75.152;2022-07-15T01:40:29;5.55;;;3.65;;
56631;SDS011;42503;39.928;-75.152;2022-07-15T01:42:30;5.63;;;3.15;;
56631;SDS011;42503;39.928;-75.152;2022-07-15T01:44:33;5.57;;;3.55;;
56631;SDS011;42503;39.928;-75.152;2022-07-15T01:46:34;7.90;;;3.63;;
56631;SDS011;42503;39.928;-75.152;2022-07-15T01:48:35;6.25;;;3.63;;
56631;SDS011;42503;39.928;-75.152;2022-07-15T01:50:55;7.32;;;4.00;;
56631;SDS011;42503;39.928;-75.152;2022-07-15T01:53:00;5.25;;;3.75;;
56631;SDS011;42503;39.928;-75.152;2022-07-15T01:55:03;5.40;;;3.85;;
56631;SDS011;42503;39.928;-75.152;2022-07-15T01:57:05;5.45;;;4.30;;
56631;SDS011;42503;39.928;-75.152;2022-07-15T01:59:07;5.32;;;3.95;;
56631;SDS011;42503;39.928;-75.152;2022-07-15T02:01:09;5.43;;;3.60;;
56631;SDS011;42503;39.928;-75.152;2022-07-15T02:03:10;6.68;;;3.72;;
56631;SDS011;42503;39.928;-75.152;2022-07-15T02:05:11;6.10;;;4.00;;
56631;SDS011;42503;39.928;-75.152;2022-07-15T02:07:15;6.15;;;4.07;;
56631;SDS011;42503;39.928;-75.152;2022-07-15T02:09:16;8.43;;;3.72;;
56631;SDS011;42503;39.928;-75.152;2022-07-15T02:11:20;6.43;;;3.72;;
56631;SDS011;42503;39.928;-75.152;2022-07-15T02:13:22;6.10;;;3.85;;
56631;SDS011;42503;39.928;-75.152;2022-07-15T02:15:23;6.28;;;4.28;;
56631;SDS011;42503;39.928;-75.152;2022-07-15T02:17:24;6.20;;;4.28;;
56631;SDS011;42503;39.928;-75.152;2022-07-15T02:19:26;5.75;;;3.92;;
56631;SDS011;42503;39.928;-75.152;2022-07-15T02:21:27;8.73;;;3.55;;
56631;SDS011;42503;39.928;-75.152;2022-07-15T02:23:29;5.55;;;3.95;;
56631;SDS011;42503;39.928;-75.152;2022-07-15T02:25:31;4.68;;;3.75;;
56631;SDS011;42503;39.928;-75.152;2022-07-15T02:27:34;7.22;;;3.72;;
56631;SDS011;42503;39.928;-75.152;2022-07-15T02:29:35;5.60;;;4.03;;
56631;SDS011;42503;39.928;-75.152;2022-07-15T02:31:37;5.22;;;3.70;;
56631;SDS011;42503;39.928;-75.152;2022-07-15T02:33:41;6.15;;;3.70;;
56631;SDS011;42503;39.928;-75.152;2022-07-15T02:35:42;3.70;;;3.40;;
56631;SDS011;42503;39.928;-75.152;2022-07-15T02:37:47;5.20;;;3.60;;
56631;SDS011;42503;39.928;-75.152;2022-07-15T02:39:48;4.47;;;3.38;;
56631;SDS011;42503;39.928;-75.152;2022-07-15T02:41:49;4.35;;;3.58;;
56631;SDS011;42503;39.928;-75.152;2022-07-15T02:43:51;4.38;;;3.95;;
56631;SDS011;42503;39.928;-75.152;2022-07-15T02:45:52;3.88;;;3.47;;
56631;SDS011;42503;39.928;-75.152;2022-07-15T02:47:54;8.32;;;3.42;;
56631;SDS011;42503;39.928;-75.152;2022-07-15T02:49:56;4.53;;;3.22;;
56631;SDS011;42503;39.928;-75.152;2022-07-15T02:51:57;4.93;;;3.75;;
56631;SDS011;42503;39.928;-75.152;2022-07-15T02:53:59;5.05;;;3.60;;
56631;SDS011;42503;39.928;-75.152;2022-07-15T02:56:00;5.93;;;3.60;;
56631;SDS011;42503;39.928;-75.152;2022-07-15T02:58:02;4.65;;;3.55;;
56631;SDS011;42503;39.928;-75.152;2022-07-15T03:00:04;6.68;;;3.53;;
56631;SDS011;42503;39.928;-75.152;2022-07-15T03:02:08;3.53;;;3.15;;
56631;SDS011;42503;39.928;-75.152;2022-07-15T03:04:09;3.85;;;2.85;;
56631;SDS011;42503;39.928;-75.152;2022-07-15T03:06:13;3.72;;;3.17;;
56631;SDS011;42503;39.928;-75.152;2022-07-15T03:08:15;3.80;;;3.40;;
56631;SDS011;42503;39.928;-75.152;2022-07-15T03:10:21;5.20;;;3.08;;
56631;SDS011;42503;39.928;-75.152;2022-07-15T03:12:23;4.07;;;3.50;;
56631;SDS011;42503;39.928;-75.152;2022-07-15T03:14:24;3.72;;;3.42;;
56631;SDS011;42503;39.928;-75.152;2022-07-15T03:16:26;4.32;;;3.33;;
56631;SDS011;42503;39.928;-75.152;2022-07-15T03:18:27;3.65;;;3.13;;
56631;SDS011;42503;39.928;-75.152;2022-07-15T03:20:29;4.53;;;3.28;;
56631;SDS011;42503;39.928;-75.152;2022-07-15T03:22:33;4.00;;;3.38;;
56631;SDS011;42503;39.928;-75.152;2022-07-15T03:24:38;3.85;;;3.08;;
56631;SDS011;42503;39.928;-75.152;2022-07-15T03:26:39;4.38;;;3.33;;
56631;SDS011;42503;39.928;-75.152;2022-07-15T03:28:40;6.43;;;3.33;;
56631;SDS011;42503;39.928;-75.152;2022-07-15T03:30:42;3.47;;;3.13;;
56631;SDS011;42503;39.928;-75.152;2022-07-15T03:32:43;3.80;;;3.15;;
56631;SDS011;42503;39.928;-75.152;2022-07-15T03:34:47;3.38;;;2.83;;
56631;SDS011;42503;39.928;-75.152;2022-07-15T03:36:52;7.47;;;3.10;;
56631;SDS011;42503;39.928;-75.152;2022-07-15T03:38:54;4.57;;;3.28;;
56631;SDS011;42503;39.928;-75.152;2022-07-15T03:40:58;5.88;;;3.38;;
56631;SDS011;42503;39.928;-75.152;2022-07-15T03:43:00;3.53;;;3.15;;
56631;SDS011;42503;39.928;-75.152;2022-07-15T03:45:01;5.88;;;2.92;;
56631;SDS011;42503;39.928;-75.152;2022-07-15T03:47:06;5.43;;;3.50;;
56631;SDS011;42503;39.928;-75.152;2022-07-15T03:49:07;3.33;;;3.03;;
56631;SDS011;42503;39.928;-75.152;2022-07-15T03:51:08;3.72;;;2.97;;
56631;SDS011;42503;39.928;-75.152;2022-07-15T03:53:09;4.68;;;3.40;;
56631;SDS011;42503;39.928;-75.152;2022-07-15T03:55:11;4.35;;;3.28;;
56631;SDS011;42503;39.928;-75.152;2022-07-15T03:57:12;4.40;;;3.17;;
56631;SDS011;42503;39.928;-75.152;2022-07-15T03:59:14;4.82;;;3.58;;
56631;SDS011;42503;39.928;-75.152;2022-07-15T04:01:18;3.78;;;3.17;;
56631;SDS011;42503;39.928;-75.152;2022-07-15T04:03:21;4.45;;;3.15;;
56631;SDS011;42503;39.928;-75.152;2022-07-15T04:05:22;5.65;;;3.53;;
56631;SDS011;42503;39.928;-75.152;2022-07-15T04:07:24;4.07;;;3.30;;
56631;SDS011;42503;39.928;-75.152;2022-07-15T04:09:28;3.97;;;3.35;;
56631;SDS011;42503;39.928;-75.152;2022-07-15T04:11:29;3.33;;;3.03;;
56631;SDS011;42503;39.928;-75.152;2022-07-15T04:13:34;3.42;;;3.13;;
56631;SDS011;42503;39.928;-75.152;2022-07-15T04:15:35;3.80;;;3.13;;
56631;SDS011;42503;39.928;-75.152;2022-07-15T04:17:36;3.63;;;2.90;;
56631;SDS011;42503;39.928;-75.152;2022-07-15T04:19:38;4.63;;;3.22;;
56631;SDS011;42503;39.928;-75.152;2022-07-15T04:21:39;4.20;;;3.03;;
56631;SDS011;42503;39.928;-75.152;2022-07-15T04:23:40;5.32;;;3.33;;
56631;SDS011;42503;39.928;-75.152;2022-07-15T04:25:42;4.10;;;3.00;;
56631;SDS011;42503;39.928;-75.152;2022-07-15T04:27:46;3.28;;;3.05;;
56631;SDS011;42503;39.928;-75.152;2022-07-15T04:29:51;4.22;;;3.20;;
56631;SDS011;42503;39.928;-75.152;2022-07-15T04:31:55;4.00;;;3.10;;
56631;SDS011;42503;39.928;-75.152;2022-07-15T04:33:56;3.67;;;3.28;;
56631;SDS011;42503;39.928;-75.152;2022-07-15T04:35:58;3.72;;;3.17;;
56631;SDS011;42503;39.928;-75.152;2022-07-15T04:38:02;3.75;;;3.20;;
56631;SDS011;42503;39.928;-75.152;2022-07-15T04:40:04;3.33;;;3.03;;
56631;SDS011;42503;39.928;-75.152;2022-07-15T04:42:07;3.47;;;3.13;;
56631;SDS011;42503;39.928;-75.152;2022-07-15T04:44:12;4.85;;;3.38;;
56631;SDS011;42503;39.928;-75.152;2022-07-15T04:46:14;3.38;;;3.08;;
56631;SDS011;42503;39.928;-75.152;2022-07-15T04:48:15;3.65;;;3.35;;
56631;SDS011;42503;39.928;-75.152;2022-07-15T04:50:35;3.63;;;3.30;;
56631;SDS011;42503;39.928;-75.152;2022-07-15T04:52:52;3.42;;;3.13;;
56631;SDS011;42503;39.928;-75.152;2022-07-15T04:54:53;4.18;;;3.78;;
56631;SDS011;42503;39.928;-75.152;2022-07-15T04:56:55;3.40;;;3.10;;
56631;SDS011;42503;39.928;-75.152;2022-07-15T04:58:56;3.92;;;3.50;;
56631;SDS011;42503;39.928;-75.152;2022-07-15T05:00:57;4.68;;;3.78;;
56631;SDS011;42503;39.928;-75.152;2022-07-15T05:02:59;4.35;;;3.22;;
56631;SDS011;42503;39.928;-75.152;2022-07-15T05:05:05;3.50;;;3.17;;
56631;SDS011;42503;39.928;-75.152;2022-07-15T05:07:09;4.22;;;3.90;;
56631;SDS011;42503;39.928;-75.152;2022-07-15T05:09:11;5.00;;;3.47;;
56631;SDS011;42503;39.928;-75.152;2022-07-15T05:11:12;4.10;;;3.45;;
56631;SDS011;42503;39.928;-75.152;2022-07-15T05:13:14;4.30;;;3.47;;
56631;SDS011;42503;39.928;-75.152;2022-07-15T05:15:15;3.88;;;3.22;;
56631;SDS011;42503;39.928;-75.152;2022-07-15T05:17:16;3.40;;;3.08;;
56631;SDS011;42503;39.928;-75.152;2022-07-15T05:19:20;3.58;;;3.28;;
56631;SDS011;42503;39.928;-75.152;2022-07-15T05:21:22;3.85;;;3.45;;
56631;SDS011;42503;39.928;-75.152;2022-07-15T05:23:23;3.75;;;3.42;;
56631;SDS011;42503;39.928;-75.152;2022-07-15T05:25:27;4.05;;;3.65;;
56631;SDS011;42503;39.928;-75.152;2022-07-15T05:27:28;4.85;;;3.90;;
56631;SDS011;42503;39.928;-75.152;2022-07-15T05:29:30;5.38;;;3.58;;
56631;SDS011;42503;39.928;-75.152;2022-07-15T05:31:31;3.72;;;3.42;;
56631;SDS011;42503;39.928;-75.152;2022-07-15T05:33:35;4.57;;;3.83;;
56631;SDS011;42503;39.928;-75.152;2022-07-15T05:35:36;3.50;;;3.20;;
56631;SDS011;42503;39.928;-75.152;2022-07-15T05:37:38;3.95;;;3.55;;
56631;SDS011;42503;39.928;-75.152;2022-07-15T05:39:40;4.20;;;3.80;;
56631;SDS011;42503;39.928;-75.152;2022-07-15T05:41:56;3.50;;;3.20;;
56631;SDS011;42503;39.928;-75.152;2022-07-15T05:44:03;4.13;;;3.72;;
56631;SDS011;42503;39.928;-75.152;2022-07-15T05:46:05;4.00;;;3.70;;
56631;SDS011;42503;39.928;-75.152;2022-07-15T05:48:07;4.18;;;3.78;;
56631;SDS011;42503;39.928;-75.152;2022-07-15T05:50:11;4.20;;;3.83;;
56631;SDS011;42503;39.928;-75.152;2022-07-15T05:52:12;4.35;;;3.95;;
56631;SDS011;42503;39.928;-75.152;2022-07-15T05:54:14;4.10;;;3.75;;
56631;SDS011;42503;39.928;-75.152;2022-07-15T05:56:15;4.15;;;3.75;;
56631;SDS011;42503;39.928;-75.152;2022-07-15T05:58:17;4.13;;;3.72;;
56631;SDS011;42503;39.928;-75.152;2022-07-15T06:00:18;3.60;;;3.20;;
56631;SDS011;42503;39.928;-75.152;2022-07-15T06:02:19;4.57;;;3.80;;
56631;SDS011;42503;39.928;-75.152;2022-07-15T06:04:24;4.10;;;3.78;;
56631;SDS011;42503;39.928;-75.152;2022-07-15T06:06:28;4.55;;;3.67;;
56631;SDS011;42503;39.928;-75.152;2022-07-15T06:08:38;3.35;;;3.05;;
56631;SDS011;42503;39.928;-75.152;2022-07-15T06:10:40;3.53;;;3.22;;
56631;SDS011;42503;39.928;-75.152;2022-07-15T06:12:45;3.65;;;3.35;;
56631;SDS011;42503;39.928;-75.152;2022-07-15T06:14:46;4.18;;;3.78;;
56631;SDS011;42503;39.928;-75.152;2022-07-15T06:16:48;3.95;;;3.55;;
56631;SDS011;42503;39.928;-75.152;2022-07-15T06:18:52;4.55;;;3.30;;
56631;SDS011;42503;39.928;-75.152;2022-07-15T06:20:56;3.92;;;3.20;;
56631;SDS011;42503;39.928;-75.152;2022-07-15T06:22:57;3.53;;;3.22;;
56631;SDS011;42503;39.928;-75.152;2022-07-15T06:24:58;3.38;;;3.05;;
56631;SDS011;42503;39.928;-75.152;2022-07-15T06:27:00;3.40;;;3.10;;
56631;SDS011;42503;39.928;-75.152;2022-07-15T06:29:01;3.88;;;3.50;;
56631;SDS011;42503;39.928;-75.152;2022-07-15T06:31:06;4.57;;;3.38;;
56631;SDS011;42503;39.928;-75.152;2022-07-15T06:33:07;4.47;;;3.85;;
56631;SDS011;42503;39.928;-75.152;2022-07-15T06:35:09;4.28;;;3.67;;
56631;SDS011;42503;39.928;-75.152;2022-07-15T06:37:11;3.60;;;3.30;;
56631;SDS011;42503;39.928;-75.152;2022-07-15T06:39:13;3.63;;;3.30;;
56631;SDS011;42503;39.928;-75.152;2022-07-15T06:41:14;3.90;;;3.47;;
56631;SDS011;42503;39.928;-75.152;2022-07-15T06:43:15;4.20;;;3.80;;
56631;SDS011;42503;39.928;-75.152;2022-07-15T06:45:17;3.80;;;3.20;;
56631;SDS011;42503;39.928;-75.152;2022-07-15T06:47:18;3.88;;;3.47;;
56631;SDS011;42503;39.928;-75.152;2022-07-15T06:49:23;3.88;;;3.50;;
56631;SDS011;42503;39.928;-75.152;2022-07-15T06:51:24;3.90;;;3.55;;
56631;SDS011;42503;39.928;-75.152;2022-07-15T06:53:25;3.67;;;3.30;;
56631;SDS011;42503;39.928;-75.152;2022-07-15T06:55:27;4.40;;;4.00;;
56631;SDS011;42503;39.928;-75.152;2022-07-15T06:57:29;4.22;;;3.83;;
56631;SDS011;42503;39.928;-75.152;2022-07-15T06:59:30;4.63;;;3.70;;
56631;SDS011;42503;39.928;-75.152;2022-07-15T07:01:31;3.63;;;3.33;;
56631;SDS011;42503;39.928;-75.152;2022-07-15T07:03:38;4.30;;;3.90;;
56631;SDS011;42503;39.928;-75.152;2022-07-15T07:05:39;4.18;;;3.63;;
56631;SDS011;42503;39.928;-75.152;2022-07-15T07:07:43;4.22;;;3.83;;
56631;SDS011;42503;39.928;-75.152;2022-07-15T07:09:45;4.03;;;3.63;;
56631;SDS011;42503;39.928;-75.152;2022-07-15T07:11:46;4.30;;;3.90;;
56631;SDS011;42503;39.928;-75.152;2022-07-15T07:13:48;3.38;;;3.08;;
56631;SDS011;42503;39.928;-75.152;2022-07-15T07:15:50;3.38;;;3.08;;
56631;SDS011;42503;39.928;-75.152;2022-07-15T07:17:51;3.85;;;3.55;;
56631;SDS011;42503;39.928;-75.152;2022-07-15T07:19:56;3.83;;;3.42;;
56631;SDS011;42503;39.928;-75.152;2022-07-15T07:21:59;4.10;;;3.70;;
56631;SDS011;42503;39.928;-75.152;2022-07-15T07:24:05;4.50;;;4.10;;
56631;SDS011;42503;39.928;-75.152;2022-07-15T07:26:08;3.63;;;3.33;;
56631;SDS011;42503;39.928;-75.152;2022-07-15T07:28:10;4.72;;;3.72;;
56631;SDS011;42503;39.928;-75.152;2022-07-15T07:30:14;5.13;;;3.33;;
56631;SDS011;42503;39.928;-75.152;2022-07-15T07:32:16;4.13;;;3.72;;
56631;SDS011;42503;39.928;-75.152;2022-07-15T07:34:20;4.22;;;3.60;;
56631;SDS011;42503;39.928;-75.152;2022-07-15T07:36:22;3.88;;;3.58;;
56631;SDS011;42503;39.928;-75.152;2022-07-15T07:38:24;3.97;;;3.58;;
56631;SDS011;42503;39.928;-75.152;2022-07-15T07:40:25;3.75;;;3.30;;
56631;SDS011;42503;39.928;-75.152;2022-07-15T07:42:27;3.90;;;3.53;;
56631;SDS011;42503;39.928;-75.152;2022-07-15T07:44:28;3.75;;;3.40;;
56631;SDS011;42503;39.928;-75.152;2022-07-15T07:46:29;4.25;;;3.85;;
56631;SDS011;42503;39.928;-75.152;2022-07-15T07:48:31;3.97;;;3.58;;
56631;SDS011;42503;39.928;-75.152;2022-07-15T07:50:32;4.25;;;3.85;;
56631;SDS011;42503;39.928;-75.152;2022-07-15T07:52:34;4.45;;;3.60;;
56631;SDS011;42503;39.928;-75.152;2022-07-15T07:54:42;3.88;;;3.47;;
56631;SDS011;42503;39.928;-75.152;2022-07-15T07:56:44;4.03;;;3.63;;
56631;SDS011;42503;39.928;-75.152;2022-07-15T07:58:46;4.03;;;3.72;;
56631;SDS011;42503;39.928;-75.152;2022-07-15T08:00:50;4.35;;;3.88;;
56631;SDS011;42503;39.928;-75.152;2022-07-15T08:02:53;4.05;;;3.65;;
56631;SDS011;42503;39.928;-75.152;2022-07-15T08:04:55;4.15;;;3.70;;
56631;SDS011;42503;39.928;-75.152;2022-07-15T08:07:00;4.13;;;3.72;;
56631;SDS011;42503;39.928;-75.152;2022-07-15T08:09:01;4.20;;;3.80;;
56631;SDS011;42503;39.928;-75.152;2022-07-15T08:11:02;4.32;;;3.92;;
56631;SDS011;42503;39.928;-75.152;2022-07-15T08:13:03;4.82;;;4.00;;
56631;SDS011;42503;39.928;-75.152;2022-07-15T08:15:06;3.67;;;3.38;;
56631;SDS011;42503;39.928;-75.152;2022-07-15T08:17:11;4.28;;;3.88;;
56631;SDS011;42503;39.928;-75.152;2022-07-15T08:19:12;4.40;;;4.00;;
56631;SDS011;42503;39.928;-75.152;2022-07-15T08:21:17;4.25;;;3.92;;
56631;SDS011;42503;39.928;-75.152;2022-07-15T08:23:21;3.90;;;3.50;;
56631;SDS011;42503;39.928;-75.152;2022-07-15T08:25:22;4.00;;;3.70;;
56631;SDS011;42503;39.928;-75.152;2022-07-15T08:27:33;5.32;;;3.72;;
56631;SDS011;42503;39.928;-75.152;2022-07-15T08:29:34;3.97;;;3.65;;
56631;SDS011;42503;39.928;-75.152;2022-07-15T08:31:36;4.43;;;4.03;;
56631;SDS011;42503;39.928;-75.152;2022-07-15T08:33:38;4.00;;;3.60;;
56631;SDS011;42503;39.928;-75.152;2022-07-15T08:35:39;3.83;;;3.53;;
56631;SDS011;42503;39.928;-75.152;2022-07-15T08:37:42;3.80;;;3.50;;
56631;SDS011;42503;39.928;-75.152;2022-07-15T08:39:43;3.75;;;3.45;;
56631;SDS011;42503;39.928;-75.152;2022-07-15T08:41:47;3.83;;;3.20;;
56631;SDS011;42503;39.928;-75.152;2022-07-15T08:43:49;4.15;;;3.75;;
56631;SDS011;42503;39.928;-75.152;2022-07-15T08:45:52;4.03;;;3.65;;
56631;SDS011;42503;39.928;-75.152;2022-07-15T08:47:56;4.45;;;4.05;;
56631;SDS011;42503;39.928;-75.152;2022-07-15T08:50:00;4.28;;;3.88;;
56631;SDS011;42503;39.928;-75.152;2022-07-15T08:52:04;5.50;;;4.00;;
56631;SDS011;42503;39.928;-75.152;2022-07-15T08:54:09;4.05;;;3.70;;
56631;SDS011;42503;39.928;-75.152;2022-07-15T08:56:11;5.05;;;3.58;;
56631;SDS011;42503;39.928;-75.152;2022-07-15T08:58:15;3.60;;;3.30;;
56631;SDS011;42503;39.928;-75.152;2022-07-15T09:00:19;3.75;;;3.45;;
56631;SDS011;42503;39.928;-75.152;2022-07-15T09:02:28;4.00;;;3.60;;
56631;SDS011;42503;39.928;-75.152;2022-07-15T09:04:31;4.40;;;4.00;;
56631;SDS011;42503;39.928;-75.152;2022-07-15T09:06:42;4.25;;;3.85;;
56631;SDS011;42503;39.928;-75.152;2022-07-15T09:08:45;4.20;;;3.80;;
56631;SDS011;42503;39.928;-75.152;2022-07-15T09:10:50;4.03;;;3.63;;
56631;SDS011;42503;39.928;-75.152;2022-07-15T09:12:54;4.38;;;3.97;;
56631;SDS011;42503;39.928;-75.152;2022-07-15T09:14:58;4.35;;;3.95;;
56631;SDS011;42503;39.928;-75.152;2022-07-15T09:19:13;4.13;;;3.75;;
56631;SDS011;42503;39.928;-75.152;2022-07-15T09:21:15;4.05;;;3.65;;
56631;SDS011;42503;39.928;-75.152;2022-07-15T09:23:22;6.45;;;4.57;;
56631;SDS011;42503;39.928;-75.152;2022-07-15T09:25:31;3.72;;;3.42;;
56631;SDS011;42503;39.928;-75.152;2022-07-15T09:27:38;4.40;;;4.00;;
56631;SDS011;42503;39.928;-75.152;2022-07-15T09:29:43;4.50;;;4.10;;
56631;SDS011;42503;39.928;-75.152;2022-07-15T09:32:03;4.07;;;3.70;;
56631;SDS011;42503;39.928;-75.152;2022-07-15T09:35:02;3.75;;;3.45;;
56631;SDS011;42503;39.928;-75.152;2022-07-15T09:37:26;4.50;;;4.10;;
56631;SDS011;42503;39.928;-75.152;2022-07-15T09:39:27;3.78;;;3.42;;
56631;SDS011;42503;39.928;-75.152;2022-07-15T09:41:35;3.60;;;3.30;;
56631;SDS011;42503;39.928;-75.152;2022-07-15T09:43:46;4.65;;;4.10;;
56631;SDS011;42503;39.928;-75.152;2022-07-15T09:45:59;4.20;;;3.80;;
56631;SDS011;42503;39.928;-75.152;2022-07-15T09:48:05;4.47;;;4.07;;
56631;SDS011;42503;39.928;-75.152;2022-07-15T09:50:07;4.47;;;4.07;;
56631;SDS011;42503;39.928;-75.152;2022-07-15T09:52:12;4.10;;;3.70;;
56631;SDS011;42503;39.928;-75.152;2022-07-15T09:54:15;4.30;;;3.90;;
56631;SDS011;42503;39.928;-75.152;2022-07-15T09:56:18;4.00;;;3.60;;
56631;SDS011;42503;39.928;-75.152;2022-07-15T09:58:24;4.03;;;3.63;;
56631;SDS011;42503;39.928;-75.152;2022-07-15T10:00:26;4.45;;;4.05;;
56631;SDS011;42503;39.928;-75.152;2022-07-15T10:02:27;3.72;;;3.40;;
56631;SDS011;42503;39.928;-75.152;2022-07-15T10:04:29;4.13;;;3.72;;
56631;SDS011;42503;39.928;-75.152;2022-07-15T10:06:32;4.10;;;3.70;;
56631;SDS011;42503;39.928;-75.152;2022-07-15T10:08:36;6.25;;;4.10;;
56631;SDS011;42503;39.928;-75.152;2022-07-15T10:10:38;4.50;;;4.03;;
56631;SDS011;42503;39.928;-75.152;2022-07-15T10:15:20;4.18;;;3.78;;
56631;SDS011;42503;39.928;-75.152;2022-07-15T10:25:22;5.10;;;4.40;;
56631;SDS011;42503;39.928;-75.152;2022-07-15T10:30:18;6.07;;;4.78;;
56631;SDS011;42503;39.928;-75.152;2022-07-15T10:32:21;6.15;;;5.32;;
56631;SDS011;42503;39.928;-75.152;2022-07-15T10:34:23;4.85;;;4.35;;
56631;SDS011;42503;39.928;-75.152;2022-07-15T10:39:02;5.40;;;4.90;;
56631;SDS011;42503;39.928;-75.152;2022-07-15T10:41:09;6.20;;;5.60;;
56631;SDS011;42503;39.928;-75.152;2022-07-15T10:43:12;5.88;;;5.28;;
56631;SDS011;42503;39.928;-75.152;2022-07-15T10:45:17;5.88;;;5.30;;
56631;SDS011;42503;39.928;-75.152;2022-07-15T10:47:18;6.25;;;5.60;;
56631;SDS011;42503;39.928;-75.152;2022-07-15T10:53:47;6.15;;;5.22;;
56631;SDS011;42503;39.928;-75.152;2022-07-15T10:55:49;5.15;;;4.70;;
56631;SDS011;42503;39.928;-75.152;2022-07-15T10:57:53;5.70;;;5.10;;
56631;SDS011;42503;39.928;-75.152;2022-07-15T10:59:55;5.80;;;4.95;;
56631;SDS011;42503;39.928;-75.152;2022-07-15T11:06:20;4.63;;;4.22;;
56631;SDS011;42503;39.928;-75.152;2022-07-15T11:10:32;4.93;;;4.43;;
56631;SDS011;42503;39.928;-75.152;2022-07-15T11:17:04;5.80;;;4.72;;
56631;SDS011;42503;39.928;-75.152;2022-07-15T11:19:11;5.05;;;4.60;;
56631;SDS011;42503;39.928;-75.152;2022-07-15T11:21:13;7.18;;;4.97;;
56631;SDS011;42503;39.928;-75.152;2022-07-15T11:23:17;5.03;;;4.47;;
56631;SDS011;42503;39.928;-75.152;2022-07-15T11:28:10;5.63;;;5.03;;
56631;SDS011;42503;39.928;-75.152;2022-07-15T11:30:24;5.18;;;4.60;;
56631;SDS011;42503;39.928;-75.152;2022-07-15T11:32:25;5.10;;;4.60;;
56631;SDS011;42503;39.928;-75.152;2022-07-15T11:34:35;6.20;;;4.32;;
56631;SDS011;42503;39.928;-75.152;2022-07-15T11:36:41;6.13;;;5.18;;
56631;SDS011;42503;39.928;-75.152;2022-07-15T11:38:42;6.65;;;5.00;;
56631;SDS011;42503;39.928;-75.152;2022-07-15T11:40:45;5.30;;;4.80;;
56631;SDS011;42503;39.928;-75.152;2022-07-15T11:43:17;5.10;;;4.55;;
56631;SDS011;42503;39.928;-75.152;2022-07-15T11:45:39;6.25;;;5.10;;
56631;SDS011;42503;39.928;-75.152;2022-07-15T11:47:52;5.00;;;4.50;;
56631;SDS011;42503;39.928;-75.152;2022-07-15T11:50:04;5.05;;;4.55;;
56631;SDS011;42503;39.928;-75.152;2022-07-15T11:52:07;5.55;;;4.82;;
56631;SDS011;42503;39.928;-75.152;2022-07-15T11:54:12;5.90;;;5.25;;
56631;SDS011;42503;39.928;-75.152;2022-07-15T11:56:14;5.47;;;4.97;;
56631;SDS011;42503;39.928;-75.152;2022-07-15T11:58:25;5.38;;;4.45;;
56631;SDS011;42503;39.928;-75.152;2022-07-15T12:00:28;5.57;;;4.95;;
56631;SDS011;42503;39.928;-75.152;2022-07-15T12:02:32;5.55;;;4.82;;
56631;SDS011;42503;39.928;-75.152;2022-07-15T12:04:34;5.65;;;4.78;;
56631;SDS011;42503;39.928;-75.152;2022-07-15T12:06:39;5.43;;;4.28;;
56631;SDS011;42503;39.928;-75.152;2022-07-15T12:08:42;4.60;;;4.20;;
56631;SDS011;42503;39.928;-75.152;2022-07-15T12:11:08;5.43;;;4.30;;
56631;SDS011;42503;39.928;-75.152;2022-07-15T12:13:21;5.70;;;5.10;;
56631;SDS011;42503;39.928;-75.152;2022-07-15T12:15:25;5.00;;;4.50;;
56631;SDS011;42503;39.928;-75.152;2022-07-15T12:17:36;4.72;;;4.32;;
56631;SDS011;42503;39.928;-75.152;2022-07-15T12:19:38;5.10;;;4.50;;
56631;SDS011;42503;39.928;-75.152;2022-07-15T12:21:43;5.47;;;4.97;;
56631;SDS011;42503;39.928;-75.152;2022-07-15T12:23:59;5.43;;;4.63;;
56631;SDS011;42503;39.928;-75.152;2022-07-15T12:26:17;5.65;;;4.78;;
56631;SDS011;42503;39.928;-75.152;2022-07-15T12:28:28;5.80;;;5.20;;
56631;SDS011;42503;39.928;-75.152;2022-07-15T12:30:33;4.88;;;4.47;;
56631;SDS011;42503;39.928;-75.152;2022-07-15T12:32:39;6.03;;;5.10;;
56631;SDS011;42503;39.928;-75.152;2022-07-15T12:34:52;7.45;;;6.10;;
56631;SDS011;42503;39.928;-75.152;2022-07-15T12:36:55;5.20;;;4.70;;
56631;SDS011;42503;39.928;-75.152;2022-07-15T12:39:06;6.60;;;5.63;;
56631;SDS011;42503;39.928;-75.152;2022-07-15T12:41:23;6.15;;;4.93;;
56631;SDS011;42503;39.928;-75.152;2022-07-15T12:43:45;7.18;;;6.47;;
56631;SDS011;42503;39.928;-75.152;2022-07-15T12:45:48;6.47;;;5.13;;
56631;SDS011;42503;39.928;-75.152;2022-07-15T12:47:58;6.30;;;5.68;;